METAR Data
IDs: Format: Raw Decoded Include TAF

Data at: 2039 UTC 17 Nov 2019

KBBG 171945Z 31005KT 10SM BKN070 OVC090 10/00 A2996
KBBG 171847Z 24008KT 10SM OVC150 10/M01 A2998
KBBG 171749Z 26005KT 10SM OVC150 09/M02 A3000
KBBG 171651Z 21005KT 10SM OVC150 09/M03 A3003
KBBG 171553Z 20004KT 10SM OVC150 08/M02 A3005
KBBG 171455Z 00000KT 10SM OVC150 06/00 A3006
KBBG 171357Z 00000KT 10SM OVC150 04/00 A3006
KBBG 171259Z 17006KT 10SM OVC150 04/M01 A3006
KBBG 171215Z AUTO 00000KT 10SM CLR 03/00 A3005 RMK AO2
KBBG 171155Z AUTO 00000KT 10SM CLR 03/00 A3006 RMK AO2
KBBG 171135Z AUTO 00000KT 10SM CLR 03/00 A3006 RMK AO2
KBBG 171115Z AUTO 00000KT 10SM CLR 03/00 A3006 RMK AO2
KBBG 171055Z AUTO 00000KT 10SM CLR 03/M01 A3007 RMK AO2
KBBG 171035Z AUTO 00000KT 10SM CLR 03/M01 A3007 RMK AO2
KBBG 171015Z AUTO 00000KT 10SM CLR 03/00 A3008 RMK AO2
KBBG 170955Z AUTO 00000KT 10SM CLR 03/00 A3007 RMK AO2
KBBG 170935Z AUTO 00000KT 10SM CLR 04/00 A3009 RMK AO2
KBBG 170915Z AUTO 00000KT 10SM CLR 04/M01 A3009 RMK AO2
KBBG 170855Z AUTO 00000KT 10SM CLR 04/M02 A3009 RMK AO2
KBBG 170835Z AUTO 00000KT 10SM CLR 04/M01 A3008 RMK AO2
KBBG 170815Z AUTO 00000KT 10SM CLR 04/M02 A3009 RMK AO2
KBBG 170755Z AUTO 00000KT 10SM CLR 04/M01 A3009 RMK AO2
KBBG 170735Z AUTO 00000KT 10SM CLR 04/M01 A3010 RMK AO2
KBBG 170715Z AUTO 00000KT 10SM CLR 04/M02 A3009 RMK AO2
KBBG 170655Z AUTO 00000KT 10SM CLR 04/M02 A3010 RMK AO2
KBBG 170635Z AUTO 00000KT 10SM CLR 05/M02 A3010 RMK AO2
KBBG 170615Z AUTO 00000KT 10SM CLR 05/M02 A3011 RMK AO2
KBBG 170555Z AUTO 00000KT 10SM CLR 05/M02 A3011 RMK AO2
KBBG 170535Z AUTO 00000KT 10SM CLR 05/M02 A3011 RMK AO2
KBBG 170515Z AUTO 14005KT 10SM CLR 05/M02 A3011 RMK AO2
KBBG 170455Z AUTO 14003KT 10SM CLR 05/M02 A3011 RMK AO2
KBBG 170435Z AUTO 00000KT 10SM CLR 04/M02 A3011 RMK AO2
KBBG 170415Z AUTO 00000KT 10SM CLR 05/M02 A3012 RMK AO2
KBBG 170355Z AUTO 00000KT 10SM CLR 05/M02 A3011 RMK AO2
KBBG 170335Z AUTO 15003KT 10SM CLR 05/M02 A3011 RMK AO2
KBBG 170315Z AUTO 14006KT 10SM CLR 06/M02 A3011 RMK AO2
KBBG 170255Z AUTO 14006KT 10SM CLR 06/M02 A3011 RMK AO2
KBBG 170245Z 13007KT 10SM FEW250 07/M02 A3011
KBBG 170151Z 13008KT 10SM FEW250 07/M02 A3012
KBBG 170050Z 12007KT 10SM SCT250 07/M01 A3013
KBBG 162352Z 11009KT 10SM SCT250 07/M01 A3012
KBBG 162254Z 11007KT 10SM SCT250 09/M02 A3012
KBBG 162156Z 11009KT 10SM SCT250 12/M04 A3014
KBBG 162058Z 11010KT 10SM SCT250 12/M04 A3015
KBBG 161945Z 12008KT 10SM SKC 12/M04 A3019
KBBG 161845Z 13006KT 10SM SKC 11/M03 A3022
KBBG 161745Z 13007KT 10SM SKC 10/M03 A3025
KBBG 161645Z 12007KT 10SM SKC 08/M03 A3029
KBBG 161545Z 15008KT 10SM SKC 06/M04 A3030
KBBG 161445Z 13006KT 10SM SKC 04/M04 A3030
KBBG 161345Z 00000KT 10SM SKC 00/M03 A3030
KBBG 161245Z 00000KT 10SM SKC M01/M05 A3029
KBBG 161215Z AUTO 00000KT 10SM CLR 00/M05 A3029 RMK AO2
KBBG 161155Z AUTO 00000KT 10SM CLR M02/M04 A3029 RMK AO2
KBBG 161135Z AUTO 12004KT 10SM CLR M01/M04 A3029 RMK AO2
KBBG 161115Z AUTO 12003KT 10SM CLR 00/M04 A3029 RMK AO2
KBBG 161055Z AUTO 00000KT 10SM CLR 00/M05 A3029 RMK AO2
KBBG 161035Z AUTO 00000KT 10SM CLR 00/M05 A3029 RMK AO2
KBBG 161015Z AUTO 00000KT 10SM CLR 00/M05 A3029 RMK AO2
KBBG 160955Z AUTO 00000KT 10SM CLR 00/M05 A3029 RMK AO2
KBBG 160935Z AUTO 00000KT 10SM CLR 00/M05 A3029 RMK AO2
KBBG 160915Z AUTO 00000KT 10SM CLR M01/M06 A3029 RMK AO2
KBBG 160855Z AUTO 12004KT 10SM CLR M01/M06 A3029 RMK AO2